sensor_id;sensor_type;location;lat;lon;timestamp;P1;durP1;ratioP1;P2;durP2;ratioP2
31596;SDS011;18201;50.978;7.034;2022-07-12T00:01:01;10.98;;;9.98;;
31596;SDS011;18201;50.978;7.034;2022-07-12T00:02:04;13.02;;;11.10;;
31596;SDS011;18201;50.978;7.034;2022-07-12T00:03:06;12.23;;;11.10;;
31596;SDS011;18201;50.978;7.034;2022-07-12T00:04:07;11.68;;;10.40;;
31596;SDS011;18201;50.978;7.034;2022-07-12T00:05:08;11.93;;;10.73;;
31596;SDS011;18201;50.978;7.034;2022-07-12T00:06:09;14.02;;;11.07;;
31596;SDS011;18201;50.978;7.034;2022-07-12T00:07:40;13.65;;;11.32;;
31596;SDS011;18201;50.978;7.034;2022-07-12T00:09:29;12.10;;;10.15;;
31596;SDS011;18201;50.978;7.034;2022-07-12T00:11:13;12.32;;;11.02;;
31596;SDS011;18201;50.978;7.034;2022-07-12T00:12:15;12.43;;;11.13;;
31596;SDS011;18201;50.978;7.034;2022-07-12T00:15:33;12.43;;;11.20;;
31596;SDS011;18201;50.978;7.034;2022-07-12T00:16:34;11.88;;;10.77;;
31596;SDS011;18201;50.978;7.034;2022-07-12T00:17:37;13.68;;;11.18;;
31596;SDS011;18201;50.978;7.034;2022-07-12T00:18:39;12.70;;;11.40;;
31596;SDS011;18201;50.978;7.034;2022-07-12T00:19:41;12.40;;;11.18;;
31596;SDS011;18201;50.978;7.034;2022-07-12T00:20:43;13.68;;;12.38;;
31596;SDS011;18201;50.978;7.034;2022-07-12T00:21:44;12.50;;;11.40;;
31596;SDS011;18201;50.978;7.034;2022-07-12T00:22:46;14.00;;;12.63;;
31596;SDS011;18201;50.978;7.034;2022-07-12T00:23:47;13.35;;;12.05;;
31596;SDS011;18201;50.978;7.034;2022-07-12T00:24:49;13.77;;;12.48;;
31596;SDS011;18201;50.978;7.034;2022-07-12T00:25:50;13.35;;;12.05;;
31596;SDS011;18201;50.978;7.034;2022-07-12T00:26:52;13.80;;;12.40;;
31596;SDS011;18201;50.978;7.034;2022-07-12T00:27:53;14.45;;;12.20;;
31596;SDS011;18201;50.978;7.034;2022-07-12T00:28:55;12.73;;;11.48;;
31596;SDS011;18201;50.978;7.034;2022-07-12T00:29:57;12.98;;;11.63;;
31596;SDS011;18201;50.978;7.034;2022-07-12T00:30:59;12.75;;;11.45;;
31596;SDS011;18201;50.978;7.034;2022-07-12T00:32:00;12.88;;;10.93;;
31596;SDS011;18201;50.978;7.034;2022-07-12T00:33:04;12.30;;;11.10;;
31596;SDS011;18201;50.978;7.034;2022-07-12T00:34:05;13.63;;;12.15;;
31596;SDS011;18201;50.978;7.034;2022-07-12T00:35:07;13.15;;;11.77;;
31596;SDS011;18201;50.978;7.034;2022-07-12T00:36:08;12.10;;;11.00;;
31596;SDS011;18201;50.978;7.034;2022-07-12T00:37:10;12.32;;;11.23;;
31596;SDS011;18201;50.978;7.034;2022-07-12T00:38:11;12.07;;;10.88;;
31596;SDS011;18201;50.978;7.034;2022-07-12T00:39:13;12.77;;;11.60;;
31596;SDS011;18201;50.978;7.034;2022-07-12T00:40:14;14.07;;;11.93;;
31596;SDS011;18201;50.978;7.034;2022-07-12T00:41:16;12.15;;;10.95;;
31596;SDS011;18201;50.978;7.034;2022-07-12T00:42:52;14.57;;;12.95;;
31596;SDS011;18201;50.978;7.034;2022-07-12T00:43:54;14.68;;;13.27;;
31596;SDS011;18201;50.978;7.034;2022-07-12T00:44:56;16.80;;;14.02;;
31596;SDS011;18201;50.978;7.034;2022-07-12T00:45:57;14.68;;;13.18;;
31596;SDS011;18201;50.978;7.034;2022-07-12T00:46:59;14.55;;;13.15;;
31596;SDS011;18201;50.978;7.034;2022-07-12T00:48:01;15.82;;;14.05;;
31596;SDS011;18201;50.978;7.034;2022-07-12T00:49:04;15.10;;;13.57;;
31596;SDS011;18201;50.978;7.034;2022-07-12T00:50:06;15.65;;;14.02;;
31596;SDS011;18201;50.978;7.034;2022-07-12T00:51:10;15.95;;;14.25;;
31596;SDS011;18201;50.978;7.034;2022-07-12T00:52:11;14.88;;;13.48;;
31596;SDS011;18201;50.978;7.034;2022-07-12T00:53:13;16.83;;;15.20;;
31596;SDS011;18201;50.978;7.034;2022-07-12T00:54:15;16.38;;;14.77;;
31596;SDS011;18201;50.978;7.034;2022-07-12T00:55:18;14.65;;;13.25;;
31596;SDS011;18201;50.978;7.034;2022-07-12T00:56:20;16.55;;;14.80;;
31596;SDS011;18201;50.978;7.034;2022-07-12T00:57:23;18.50;;;15.85;;
31596;SDS011;18201;50.978;7.034;2022-07-12T00:58:25;17.42;;;15.60;;
31596;SDS011;18201;50.978;7.034;2022-07-12T00:59:27;17.38;;;15.65;;
31596;SDS011;18201;50.978;7.034;2022-07-12T01:00:28;16.83;;;14.75;;
31596;SDS011;18201;50.978;7.034;2022-07-12T01:01:31;15.50;;;13.90;;
31596;SDS011;18201;50.978;7.034;2022-07-12T01:02:40;17.45;;;15.07;;
31596;SDS011;18201;50.978;7.034;2022-07-12T01:04:44;15.07;;;13.40;;
31596;SDS011;18201;50.978;7.034;2022-07-12T01:05:46;15.52;;;14.02;;
31596;SDS011;18201;50.978;7.034;2022-07-12T01:06:47;15.27;;;13.65;;
31596;SDS011;18201;50.978;7.034;2022-07-12T01:07:50;17.17;;;14.55;;
31596;SDS011;18201;50.978;7.034;2022-07-12T01:08:53;15.32;;;13.75;;
31596;SDS011;18201;50.978;7.034;2022-07-12T01:09:55;15.48;;;13.98;;
31596;SDS011;18201;50.978;7.034;2022-07-12T01:10:56;15.43;;;13.93;;
31596;SDS011;18201;50.978;7.034;2022-07-12T01:11:59;16.20;;;14.60;;
31596;SDS011;18201;50.978;7.034;2022-07-12T01:13:00;17.13;;;14.38;;
31596;SDS011;18201;50.978;7.034;2022-07-12T01:14:05;16.15;;;14.52;;
31596;SDS011;18201;50.978;7.034;2022-07-12T01:15:07;15.07;;;13.68;;
31596;SDS011;18201;50.978;7.034;2022-07-12T01:16:10;15.90;;;13.52;;
31596;SDS011;18201;50.978;7.034;2022-07-12T01:17:14;15.80;;;14.23;;
31596;SDS011;18201;50.978;7.034;2022-07-12T01:18:15;15.40;;;13.90;;
31596;SDS011;18201;50.978;7.034;2022-07-12T01:19:20;15.27;;;13.75;;
31596;SDS011;18201;50.978;7.034;2022-07-12T01:20:22;15.40;;;13.88;;
31596;SDS011;18201;50.978;7.034;2022-07-12T01:21:25;14.48;;;12.98;;
31596;SDS011;18201;50.978;7.034;2022-07-12T01:22:30;15.23;;;13.73;;
31596;SDS011;18201;50.978;7.034;2022-07-12T01:23:35;14.70;;;13.10;;
31596;SDS011;18201;50.978;7.034;2022-07-12T01:24:38;13.50;;;12.18;;
31596;SDS011;18201;50.978;7.034;2022-07-12T01:25:39;14.57;;;13.18;;
31596;SDS011;18201;50.978;7.034;2022-07-12T01:26:41;14.20;;;12.73;;
31596;SDS011;18201;50.978;7.034;2022-07-12T01:27:42;15.23;;;13.73;;
31596;SDS011;18201;50.978;7.034;2022-07-12T01:28:44;16.30;;;14.38;;
31596;SDS011;18201;50.978;7.034;2022-07-12T01:29:45;15.70;;;13.80;;
31596;SDS011;18201;50.978;7.034;2022-07-12T01:30:47;14.75;;;13.30;;
31596;SDS011;18201;50.978;7.034;2022-07-12T01:31:49;14.82;;;13.32;;
31596;SDS011;18201;50.978;7.034;2022-07-12T01:32:51;15.05;;;13.20;;
31596;SDS011;18201;50.978;7.034;2022-07-12T01:33:52;15.57;;;14.00;;
31596;SDS011;18201;50.978;7.034;2022-07-12T01:34:54;14.65;;;13.30;;
31596;SDS011;18201;50.978;7.034;2022-07-12T01:35:57;15.95;;;14.15;;
31596;SDS011;18201;50.978;7.034;2022-07-12T01:37:00;14.38;;;12.98;;
31596;SDS011;18201;50.978;7.034;2022-07-12T01:38:01;14.77;;;12.82;;
31596;SDS011;18201;50.978;7.034;2022-07-12T01:39:04;15.68;;;14.07;;
31596;SDS011;18201;50.978;7.034;2022-07-12T01:40:05;15.63;;;14.13;;
31596;SDS011;18201;50.978;7.034;2022-07-12T01:41:09;15.43;;;13.90;;
31596;SDS011;18201;50.978;7.034;2022-07-12T01:42:10;15.65;;;14.15;;
31596;SDS011;18201;50.978;7.034;2022-07-12T01:43:12;14.88;;;13.35;;
31596;SDS011;18201;50.978;7.034;2022-07-12T01:44:14;15.48;;;13.95;;
31596;SDS011;18201;50.978;7.034;2022-07-12T01:45:16;15.30;;;13.80;;
31596;SDS011;18201;50.978;7.034;2022-07-12T01:46:17;14.57;;;13.07;;
31596;SDS011;18201;50.978;7.034;2022-07-12T01:47:19;14.88;;;13.48;;
31596;SDS011;18201;50.978;7.034;2022-07-12T01:48:21;14.40;;;13.10;;
31596;SDS011;18201;50.978;7.034;2022-07-12T01:55:38;15.30;;;12.60;;
31596;SDS011;18201;50.978;7.034;2022-07-12T01:59:02;15.00;;;13.35;;
31596;SDS011;18201;50.978;7.034;2022-07-12T02:00:04;14.88;;;13.38;;
31596;SDS011;18201;50.978;7.034;2022-07-12T02:01:07;15.20;;;13.73;;
31596;SDS011;18201;50.978;7.034;2022-07-12T02:02:10;16.10;;;14.55;;
31596;SDS011;18201;50.978;7.034;2022-07-12T02:03:11;15.15;;;13.55;;
31596;SDS011;18201;50.978;7.034;2022-07-12T02:04:15;14.95;;;13.45;;
31596;SDS011;18201;50.978;7.034;2022-07-12T02:05:16;15.82;;;14.27;;
31596;SDS011;18201;50.978;7.034;2022-07-12T02:06:18;16.23;;;14.55;;
31596;SDS011;18201;50.978;7.034;2022-07-12T02:07:20;14.90;;;13.52;;
31596;SDS011;18201;50.978;7.034;2022-07-12T02:08:24;15.90;;;14.43;;
31596;SDS011;18201;50.978;7.034;2022-07-12T02:09:25;16.05;;;14.40;;
31596;SDS011;18201;50.978;7.034;2022-07-12T02:10:27;17.83;;;15.88;;
31596;SDS011;18201;50.978;7.034;2022-07-12T02:11:29;15.80;;;14.23;;
31596;SDS011;18201;50.978;7.034;2022-07-12T02:12:31;16.65;;;14.90;;
31596;SDS011;18201;50.978;7.034;2022-07-12T02:13:32;16.58;;;14.57;;
31596;SDS011;18201;50.978;7.034;2022-07-12T02:14:34;16.10;;;14.50;;
31596;SDS011;18201;50.978;7.034;2022-07-12T02:15:35;16.92;;;15.20;;
31596;SDS011;18201;50.978;7.034;2022-07-12T02:16:37;17.48;;;15.63;;
31596;SDS011;18201;50.978;7.034;2022-07-12T02:17:39;17.08;;;15.43;;
31596;SDS011;18201;50.978;7.034;2022-07-12T02:18:41;17.23;;;15.52;;
31596;SDS011;18201;50.978;7.034;2022-07-12T02:19:42;15.73;;;14.23;;
31596;SDS011;18201;50.978;7.034;2022-07-12T02:20:44;16.05;;;14.45;;
31596;SDS011;18201;50.978;7.034;2022-07-12T02:21:45;17.05;;;15.35;;
31596;SDS011;18201;50.978;7.034;2022-07-12T02:22:47;16.15;;;14.52;;
31596;SDS011;18201;50.978;7.034;2022-07-12T02:23:48;16.23;;;14.60;;
31596;SDS011;18201;50.978;7.034;2022-07-12T02:24:50;16.23;;;14.52;;
31596;SDS011;18201;50.978;7.034;2022-07-12T02:25:51;16.75;;;14.98;;
31596;SDS011;18201;50.978;7.034;2022-07-12T02:26:54;15.05;;;13.65;;
31596;SDS011;18201;50.978;7.034;2022-07-12T02:27:55;15.70;;;14.20;;
31596;SDS011;18201;50.978;7.034;2022-07-12T02:28:57;16.80;;;15.20;;
31596;SDS011;18201;50.978;7.034;2022-07-12T02:29:58;16.90;;;15.20;;
31596;SDS011;18201;50.978;7.034;2022-07-12T02:31:00;15.65;;;14.15;;
31596;SDS011;18201;50.978;7.034;2022-07-12T02:32:02;16.23;;;14.55;;
31596;SDS011;18201;50.978;7.034;2022-07-12T02:33:04;16.60;;;15.00;;
31596;SDS011;18201;50.978;7.034;2022-07-12T02:34:05;15.57;;;14.15;;
31596;SDS011;18201;50.978;7.034;2022-07-12T02:35:07;16.20;;;14.60;;
31596;SDS011;18201;50.978;7.034;2022-07-12T02:36:08;15.48;;;13.98;;
31596;SDS011;18201;50.978;7.034;2022-07-12T02:37:10;15.45;;;13.82;;
31596;SDS011;18201;50.978;7.034;2022-07-12T02:38:11;16.67;;;14.75;;
31596;SDS011;18201;50.978;7.034;2022-07-12T02:39:13;15.07;;;13.68;;
31596;SDS011;18201;50.978;7.034;2022-07-12T02:40:14;16.05;;;14.52;;
31596;SDS011;18201;50.978;7.034;2022-07-12T02:41:34;15.70;;;14.20;;
31596;SDS011;18201;50.978;7.034;2022-07-12T02:42:37;15.55;;;14.00;;
31596;SDS011;18201;50.978;7.034;2022-07-12T02:43:39;15.35;;;13.88;;
31596;SDS011;18201;50.978;7.034;2022-07-12T02:44:41;15.57;;;14.02;;
31596;SDS011;18201;50.978;7.034;2022-07-12T02:45:43;14.95;;;13.57;;
31596;SDS011;18201;50.978;7.034;2022-07-12T02:46:44;17.05;;;14.50;;
31596;SDS011;18201;50.978;7.034;2022-07-12T02:47:46;15.73;;;14.32;;
31596;SDS011;18201;50.978;7.034;2022-07-12T02:48:47;15.63;;;13.93;;
31596;SDS011;18201;50.978;7.034;2022-07-12T02:49:49;15.77;;;14.18;;
31596;SDS011;18201;50.978;7.034;2022-07-12T02:50:50;17.25;;;15.32;;
31596;SDS011;18201;50.978;7.034;2022-07-12T02:51:52;17.38;;;15.65;;
31596;SDS011;18201;50.978;7.034;2022-07-12T02:52:53;17.58;;;15.52;;
31596;SDS011;18201;50.978;7.034;2022-07-12T02:53:55;16.10;;;14.40;;
31596;SDS011;18201;50.978;7.034;2022-07-12T02:54:57;17.73;;;14.85;;
31596;SDS011;18201;50.978;7.034;2022-07-12T02:55:58;16.77;;;15.07;;
31596;SDS011;18201;50.978;7.034;2022-07-12T02:57:00;16.30;;;14.60;;
31596;SDS011;18201;50.978;7.034;2022-07-12T02:58:02;17.55;;;15.77;;
31596;SDS011;18201;50.978;7.034;2022-07-12T02:59:05;16.70;;;15.05;;
31596;SDS011;18201;50.978;7.034;2022-07-12T03:01:29;16.58;;;14.98;;
31596;SDS011;18201;50.978;7.034;2022-07-12T03:02:30;15.85;;;14.35;;
31596;SDS011;18201;50.978;7.034;2022-07-12T03:03:32;17.00;;;15.27;;
31596;SDS011;18201;50.978;7.034;2022-07-12T03:04:33;16.48;;;14.88;;
31596;SDS011;18201;50.978;7.034;2022-07-12T03:05:35;15.93;;;14.32;;
31596;SDS011;18201;50.978;7.034;2022-07-12T03:06:37;16.00;;;14.35;;
31596;SDS011;18201;50.978;7.034;2022-07-12T03:07:38;15.48;;;14.00;;
31596;SDS011;18201;50.978;7.034;2022-07-12T03:08:39;17.00;;;15.23;;
31596;SDS011;18201;50.978;7.034;2022-07-12T03:09:41;13.68;;;12.48;;
31596;SDS011;18201;50.978;7.034;2022-07-12T03:10:42;14.48;;;13.07;;
31596;SDS011;18201;50.978;7.034;2022-07-12T03:11:44;15.93;;;14.27;;
31596;SDS011;18201;50.978;7.034;2022-07-12T03:12:45;14.48;;;13.07;;
31596;SDS011;18201;50.978;7.034;2022-07-12T03:13:48;14.35;;;12.95;;
31596;SDS011;18201;50.978;7.034;2022-07-12T03:14:49;13.77;;;12.48;;
31596;SDS011;18201;50.978;7.034;2022-07-12T03:15:52;14.20;;;12.80;;
31596;SDS011;18201;50.978;7.034;2022-07-12T03:16:53;16.58;;;14.98;;
31596;SDS011;18201;50.978;7.034;2022-07-12T03:17:54;15.38;;;13.77;;
31596;SDS011;18201;50.978;7.034;2022-07-12T03:18:56;14.57;;;13.18;;
31596;SDS011;18201;50.978;7.034;2022-07-12T03:19:58;14.85;;;13.35;;
31596;SDS011;18201;50.978;7.034;2022-07-12T03:20:59;15.80;;;13.25;;
31596;SDS011;18201;50.978;7.034;2022-07-12T03:22:01;13.88;;;12.68;;
31596;SDS011;18201;50.978;7.034;2022-07-12T03:23:02;14.20;;;12.90;;
31596;SDS011;18201;50.978;7.034;2022-07-12T03:24:04;14.70;;;13.20;;
31596;SDS011;18201;50.978;7.034;2022-07-12T03:25:06;14.18;;;12.88;;
31596;SDS011;18201;50.978;7.034;2022-07-12T03:26:08;15.57;;;14.18;;
31596;SDS011;18201;50.978;7.034;2022-07-12T03:27:10;14.48;;;13.10;;
31596;SDS011;18201;50.978;7.034;2022-07-12T03:28:11;16.05;;;13.02;;
31596;SDS011;18201;50.978;7.034;2022-07-12T03:29:14;13.93;;;12.52;;
31596;SDS011;18201;50.978;7.034;2022-07-12T03:30:15;13.93;;;12.48;;
31596;SDS011;18201;50.978;7.034;2022-07-12T03:31:17;13.82;;;12.10;;
31596;SDS011;18201;50.978;7.034;2022-07-12T03:32:18;14.15;;;12.80;;
31596;SDS011;18201;50.978;7.034;2022-07-12T03:33:20;15.38;;;13.55;;
31596;SDS011;18201;50.978;7.034;2022-07-12T03:34:21;14.43;;;13.13;;
31596;SDS011;18201;50.978;7.034;2022-07-12T03:35:23;14.40;;;12.93;;
31596;SDS011;18201;50.978;7.034;2022-07-12T03:36:24;14.00;;;12.70;;
31596;SDS011;18201;50.978;7.034;2022-07-12T03:37:26;14.40;;;13.00;;
31596;SDS011;18201;50.978;7.034;2022-07-12T03:38:27;14.68;;;13.27;;
31596;SDS011;18201;50.978;7.034;2022-07-12T03:39:29;14.40;;;12.90;;
31596;SDS011;18201;50.978;7.034;2022-07-12T03:40:31;14.63;;;13.23;;
31596;SDS011;18201;50.978;7.034;2022-07-12T03:41:34;13.07;;;11.85;;
31596;SDS011;18201;50.978;7.034;2022-07-12T03:42:35;15.07;;;13.68;;
31596;SDS011;18201;50.978;7.034;2022-07-12T03:43:37;14.85;;;13.45;;
31596;SDS011;18201;50.978;7.034;2022-07-12T03:44:40;13.73;;;12.43;;
31596;SDS011;18201;50.978;7.034;2022-07-12T03:45:41;13.43;;;12.02;;
31596;SDS011;18201;50.978;7.034;2022-07-12T03:46:45;14.43;;;11.95;;
31596;SDS011;18201;50.978;7.034;2022-07-12T03:47:48;14.23;;;12.93;;
31596;SDS011;18201;50.978;7.034;2022-07-12T03:48:50;17.15;;;12.65;;
31596;SDS011;18201;50.978;7.034;2022-07-12T03:49:51;13.82;;;12.55;;
31596;SDS011;18201;50.978;7.034;2022-07-12T03:50:53;14.07;;;12.77;;
31596;SDS011;18201;50.978;7.034;2022-07-12T03:51:56;14.70;;;13.13;;
31596;SDS011;18201;50.978;7.034;2022-07-12T03:52:57;14.40;;;12.93;;
31596;SDS011;18201;50.978;7.034;2022-07-12T03:53:59;14.63;;;13.18;;
31596;SDS011;18201;50.978;7.034;2022-07-12T03:55:00;14.05;;;12.50;;
31596;SDS011;18201;50.978;7.034;2022-07-12T03:56:03;14.20;;;12.90;;
31596;SDS011;18201;50.978;7.034;2022-07-12T03:57:04;13.75;;;12.55;;
31596;SDS011;18201;50.978;7.034;2022-07-12T03:58:14;14.98;;;13.48;;
31596;SDS011;18201;50.978;7.034;2022-07-12T03:59:16;14.95;;;13.45;;
31596;SDS011;18201;50.978;7.034;2022-07-12T04:00:18;13.32;;;12.13;;
31596;SDS011;18201;50.978;7.034;2022-07-12T04:01:20;13.43;;;12.23;;
31596;SDS011;18201;50.978;7.034;2022-07-12T04:02:21;13.65;;;12.13;;
31596;SDS011;18201;50.978;7.034;2022-07-12T04:03:24;13.18;;;11.88;;
31596;SDS011;18201;50.978;7.034;2022-07-12T04:04:25;13.15;;;11.95;;
31596;SDS011;18201;50.978;7.034;2022-07-12T04:05:27;15.18;;;13.77;;
31596;SDS011;18201;50.978;7.034;2022-07-12T04:06:29;14.57;;;13.18;;
31596;SDS011;18201;50.978;7.034;2022-07-12T04:07:29;13.93;;;12.73;;
31596;SDS011;18201;50.978;7.034;2022-07-12T04:08:31;13.20;;;11.93;;
31596;SDS011;18201;50.978;7.034;2022-07-12T04:09:33;13.68;;;12.48;;
31596;SDS011;18201;50.978;7.034;2022-07-12T04:10:34;12.07;;;11.02;;
31596;SDS011;18201;50.978;7.034;2022-07-12T04:11:36;14.18;;;12.88;;
31596;SDS011;18201;50.978;7.034;2022-07-12T04:12:37;15.10;;;13.60;;
31596;SDS011;18201;50.978;7.034;2022-07-12T04:13:39;14.88;;;13.48;;
31596;SDS011;18201;50.978;7.034;2022-07-12T04:14:40;14.40;;;13.10;;
31596;SDS011;18201;50.978;7.034;2022-07-12T04:15:44;15.05;;;13.57;;
31596;SDS011;18201;50.978;7.034;2022-07-12T04:16:44;14.15;;;12.85;;
31596;SDS011;18201;50.978;7.034;2022-07-12T04:17:46;13.05;;;11.85;;
31596;SDS011;18201;50.978;7.034;2022-07-12T04:18:48;13.70;;;12.43;;
31596;SDS011;18201;50.978;7.034;2022-07-12T04:19:49;13.43;;;12.13;;
31596;SDS011;18201;50.978;7.034;2022-07-12T04:20:51;13.07;;;11.98;;
31596;SDS011;18201;50.978;7.034;2022-07-12T04:21:52;14.82;;;13.35;;
31596;SDS011;18201;50.978;7.034;2022-07-12T04:22:55;16.05;;;14.55;;
31596;SDS011;18201;50.978;7.034;2022-07-12T04:23:57;16.98;;;15.27;;
31596;SDS011;18201;50.978;7.034;2022-07-12T04:24:58;16.30;;;14.75;;
31596;SDS011;18201;50.978;7.034;2022-07-12T04:26:00;15.85;;;14.27;;
31596;SDS011;18201;50.978;7.034;2022-07-12T04:27:01;17.08;;;15.38;;
31596;SDS011;18201;50.978;7.034;2022-07-12T04:28:03;17.05;;;15.25;;
31596;SDS011;18201;50.978;7.034;2022-07-12T04:29:04;15.80;;;13.73;;
31596;SDS011;18201;50.978;7.034;2022-07-12T04:30:07;15.52;;;13.98;;
31596;SDS011;18201;50.978;7.034;2022-07-12T04:31:10;16.85;;;15.13;;
31596;SDS011;18201;50.978;7.034;2022-07-12T04:32:12;17.35;;;15.65;;
31596;SDS011;18201;50.978;7.034;2022-07-12T04:33:12;16.67;;;15.07;;
31596;SDS011;18201;50.978;7.034;2022-07-12T04:34:15;16.77;;;15.25;;
31596;SDS011;18201;50.978;7.034;2022-07-12T04:35:17;18.33;;;16.55;;
31596;SDS011;18201;50.978;7.034;2022-07-12T04:36:19;17.98;;;16.08;;
31596;SDS011;18201;50.978;7.034;2022-07-12T04:37:20;17.30;;;15.60;;
31596;SDS011;18201;50.978;7.034;2022-07-12T04:38:22;18.65;;;16.10;;
31596;SDS011;18201;50.978;7.034;2022-07-12T04:39:23;18.02;;;16.35;;
31596;SDS011;18201;50.978;7.034;2022-07-12T04:40:24;19.17;;;17.25;;
31596;SDS011;18201;50.978;7.034;2022-07-12T05:14:21;17.30;;;15.60;;
31596;SDS011;18201;50.978;7.034;2022-07-12T05:15:23;17.83;;;16.08;;
31596;SDS011;18201;50.978;7.034;2022-07-12T05:16:24;17.33;;;15.55;;
31596;SDS011;18201;50.978;7.034;2022-07-12T05:17:26;18.20;;;16.27;;
31596;SDS011;18201;50.978;7.034;2022-07-12T05:18:27;19.95;;;17.35;;
31596;SDS011;18201;50.978;7.034;2022-07-12T05:19:29;18.30;;;16.60;;
31596;SDS011;18201;50.978;7.034;2022-07-12T05:20:40;19.98;;;17.80;;
31596;SDS011;18201;50.978;7.034;2022-07-12T05:22:09;17.77;;;15.95;;
31596;SDS011;18201;50.978;7.034;2022-07-12T05:23:11;19.17;;;17.17;;
31596;SDS011;18201;50.978;7.034;2022-07-12T05:24:12;20.05;;;18.08;;
31596;SDS011;18201;50.978;7.034;2022-07-12T05:25:14;19.42;;;17.17;;
31596;SDS011;18201;50.978;7.034;2022-07-12T05:26:15;18.75;;;16.95;;
31596;SDS011;18201;50.978;7.034;2022-07-12T05:27:17;18.98;;;17.10;;
31596;SDS011;18201;50.978;7.034;2022-07-12T05:28:18;18.92;;;17.02;;
31596;SDS011;18201;50.978;7.034;2022-07-12T05:29:22;19.05;;;16.88;;
31596;SDS011;18201;50.978;7.034;2022-07-12T05:30:24;21.13;;;18.92;;
31596;SDS011;18201;50.978;7.034;2022-07-12T05:31:26;19.95;;;17.83;;
31596;SDS011;18201;50.978;7.034;2022-07-12T05:32:28;19.15;;;17.35;;
31596;SDS011;18201;50.978;7.034;2022-07-12T05:33:28;20.90;;;18.58;;
31596;SDS011;18201;50.978;7.034;2022-07-12T05:34:30;19.55;;;17.38;;
31596;SDS011;18201;50.978;7.034;2022-07-12T05:35:31;20.65;;;18.27;;
31596;SDS011;18201;50.978;7.034;2022-07-12T05:36:33;21.42;;;19.10;;
31596;SDS011;18201;50.978;7.034;2022-07-12T05:37:34;23.08;;;18.83;;
31596;SDS011;18201;50.978;7.034;2022-07-12T05:38:37;21.80;;;19.58;;
31596;SDS011;18201;50.978;7.034;2022-07-12T05:39:37;21.80;;;19.48;;
31596;SDS011;18201;50.978;7.034;2022-07-12T05:40:39;21.48;;;19.27;;
31596;SDS011;18201;50.978;7.034;2022-07-12T05:41:40;22.02;;;19.27;;
31596;SDS011;18201;50.978;7.034;2022-07-12T05:42:42;26.52;;;20.15;;
31596;SDS011;18201;50.978;7.034;2022-07-12T05:43:43;22.52;;;20.13;;
31596;SDS011;18201;50.978;7.034;2022-07-12T05:44:46;23.25;;;19.83;;
31596;SDS011;18201;50.978;7.034;2022-07-12T05:45:47;24.08;;;20.35;;
31596;SDS011;18201;50.978;7.034;2022-07-12T05:46:49;22.13;;;18.77;;
31596;SDS011;18201;50.978;7.034;2022-07-12T05:47:51;22.42;;;19.98;;
31596;SDS011;18201;50.978;7.034;2022-07-12T05:48:53;24.73;;;21.80;;
31596;SDS011;18201;50.978;7.034;2022-07-12T05:49:54;25.33;;;21.75;;
31596;SDS011;18201;50.978;7.034;2022-07-12T05:50:56;27.90;;;22.23;;
31596;SDS011;18201;50.978;7.034;2022-07-12T05:52:17;25.25;;;20.05;;
31596;SDS011;18201;50.978;7.034;2022-07-12T05:53:36;24.57;;;21.93;;
31596;SDS011;18201;50.978;7.034;2022-07-12T05:54:38;23.90;;;21.05;;
31596;SDS011;18201;50.978;7.034;2022-07-12T05:55:39;23.67;;;20.50;;
31596;SDS011;18201;50.978;7.034;2022-07-12T05:56:41;25.05;;;20.48;;
31596;SDS011;18201;50.978;7.034;2022-07-12T05:57:42;21.83;;;19.63;;
31596;SDS011;18201;50.978;7.034;2022-07-12T05:58:44;23.80;;;21.27;;
31596;SDS011;18201;50.978;7.034;2022-07-12T05:59:46;22.35;;;19.95;;
31596;SDS011;18201;50.978;7.034;2022-07-12T06:00:49;22.38;;;20.02;;
31596;SDS011;18201;50.978;7.034;2022-07-12T06:01:50;25.95;;;22.23;;
31596;SDS011;18201;50.978;7.034;2022-07-12T06:02:51;29.17;;;21.40;;
31596;SDS011;18201;50.978;7.034;2022-07-12T06:03:53;24.75;;;20.65;;
31596;SDS011;18201;50.978;7.034;2022-07-12T06:04:55;24.90;;;19.23;;
31596;SDS011;18201;50.978;7.034;2022-07-12T06:05:56;21.77;;;19.17;;
31596;SDS011;18201;50.978;7.034;2022-07-12T06:06:58;20.88;;;18.67;;
31596;SDS011;18201;50.978;7.034;2022-07-12T06:07:59;23.48;;;20.98;;
31596;SDS011;18201;50.978;7.034;2022-07-12T06:09:02;22.90;;;19.98;;
31596;SDS011;18201;50.978;7.034;2022-07-12T06:10:03;22.30;;;20.10;;
31596;SDS011;18201;50.978;7.034;2022-07-12T06:11:06;23.50;;;20.75;;
31596;SDS011;18201;50.978;7.034;2022-07-12T06:12:08;21.98;;;19.65;;
31596;SDS011;18201;50.978;7.034;2022-07-12T06:13:09;21.90;;;19.63;;
31596;SDS011;18201;50.978;7.034;2022-07-12T06:14:11;21.73;;;18.73;;
31596;SDS011;18201;50.978;7.034;2022-07-12T06:15:13;21.75;;;19.48;;
31596;SDS011;18201;50.978;7.034;2022-07-12T06:16:16;20.95;;;18.92;;
31596;SDS011;18201;50.978;7.034;2022-07-12T06:17:17;23.25;;;20.83;;
31596;SDS011;18201;50.978;7.034;2022-07-12T06:18:21;23.60;;;19.48;;
31596;SDS011;18201;50.978;7.034;2022-07-12T06:19:22;27.13;;;22.00;;
31596;SDS011;18201;50.978;7.034;2022-07-12T06:20:25;23.08;;;20.58;;
31596;SDS011;18201;50.978;7.034;2022-07-12T06:21:26;23.10;;;20.60;;
31596;SDS011;18201;50.978;7.034;2022-07-12T06:22:28;26.50;;;20.27;;
31596;SDS011;18201;50.978;7.034;2022-07-12T06:23:29;22.50;;;20.15;;
31596;SDS011;18201;50.978;7.034;2022-07-12T06:24:31;23.65;;;20.77;;
31596;SDS011;18201;50.978;7.034;2022-07-12T06:25:32;23.27;;;20.80;;
31596;SDS011;18201;50.978;7.034;2022-07-12T06:26:34;27.83;;;21.52;;
31596;SDS011;18201;50.978;7.034;2022-07-12T06:27:35;22.63;;;20.33;;
31596;SDS011;18201;50.978;7.034;2022-07-12T06:28:37;23.60;;;21.10;;
31596;SDS011;18201;50.978;7.034;2022-07-12T06:29:41;23.10;;;19.98;;
31596;SDS011;18201;50.978;7.034;2022-07-12T06:30:45;22.98;;;20.50;;
31596;SDS011;18201;50.978;7.034;2022-07-12T06:31:47;24.77;;;21.55;;
31596;SDS011;18201;50.978;7.034;2022-07-12T06:32:48;25.00;;;20.73;;
31596;SDS011;18201;50.978;7.034;2022-07-12T06:33:50;24.73;;;20.33;;
31596;SDS011;18201;50.978;7.034;2022-07-12T06:34:51;25.38;;;20.80;;
31596;SDS011;18201;50.978;7.034;2022-07-12T06:35:53;22.55;;;19.15;;
31596;SDS011;18201;50.978;7.034;2022-07-12T06:36:54;23.75;;;19.60;;
31596;SDS011;18201;50.978;7.034;2022-07-12T06:37:56;21.35;;;18.98;;
31596;SDS011;18201;50.978;7.034;2022-07-12T06:38:56;22.52;;;19.80;;
31596;SDS011;18201;50.978;7.034;2022-07-12T06:42:58;21.38;;;18.80;;
31596;SDS011;18201;50.978;7.034;2022-07-12T06:44:00;24.25;;;20.88;;
31596;SDS011;18201;50.978;7.034;2022-07-12T06:57:16;18.65;;;16.63;;
31596;SDS011;18201;50.978;7.034;2022-07-12T06:58:55;20.92;;;17.95;;
31596;SDS011;18201;50.978;7.034;2022-07-12T07:01:49;18.25;;;16.35;;
31596;SDS011;18201;50.978;7.034;2022-07-12T07:02:52;19.27;;;15.73;;
31596;SDS011;18201;50.978;7.034;2022-07-12T07:03:54;21.23;;;16.02;;
31596;SDS011;18201;50.978;7.034;2022-07-12T07:04:55;17.27;;;15.57;;
31596;SDS011;18201;50.978;7.034;2022-07-12T07:05:57;18.13;;;15.93;;
31596;SDS011;18201;50.978;7.034;2022-07-12T07:06:58;16.70;;;14.95;;
31596;SDS011;18201;50.978;7.034;2022-07-12T07:08:00;18.20;;;16.00;;
31596;SDS011;18201;50.978;7.034;2022-07-12T07:09:00;18.67;;;16.02;;
31596;SDS011;18201;50.978;7.034;2022-07-12T07:10:07;20.35;;;18.05;;